sensor_id;sensor_type;location;lat;lon;timestamp;pressure;altitude;pressure_sealevel;temperature;humidity
64025;BME280;50266;57.446;26.936;2023-04-23T00:00:37;99221.7;;;5.5;100.0
64025;BME280;50266;57.446;26.936;2023-04-23T00:01:37;99221.2;;;5.41;100.0
64025;BME280;50266;57.446;26.936;2023-04-23T00:02:36;99225.58;;;5.34;100.0
64025;BME280;50266;57.446;26.936;2023-04-23T00:03:36;99224.2;;;5.26;100.0
64025;BME280;50266;57.446;26.936;2023-04-23T00:04:37;99225.0;;;5.32;100.0
64025;BME280;50266;57.446;26.936;2023-04-23T00:05:37;99226.59;;;5.42;100.0
64025;BME280;50266;57.446;26.936;2023-04-23T00:06:37;99224.62;;;5.46;100.0
64025;BME280;50266;57.446;26.936;2023-04-23T00:07:37;99228.64;;;5.35;100.0
64025;BME280;50266;57.446;26.936;2023-04-23T00:08:40;99230.55;;;5.36;100.0
64025;BME280;50266;57.446;26.936;2023-04-23T00:09:37;99224.78;;;5.36;100.0
64025;BME280;50266;57.446;26.936;2023-04-23T00:10:37;99228.14;;;5.29;100.0
64025;BME280;50266;57.446;26.936;2023-04-23T00:11:37;99228.43;;;5.31;100.0
64025;BME280;50266;57.446;26.936;2023-04-23T00:12:37;99231.66;;;5.32;100.0
64025;BME280;50266;57.446;26.936;2023-04-23T00:13:37;99234.36;;;5.24;100.0
64025;BME280;50266;57.446;26.936;2023-04-23T00:14:37;99231.34;;;5.13;100.0
64025;BME280;50266;57.446;26.936;2023-04-23T00:15:37;99232.16;;;5.07;100.0
64025;BME280;50266;57.446;26.936;2023-04-23T00:16:38;99235.14;;;5.13;100.0
64025;BME280;50266;57.446;26.936;2023-04-23T00:17:37;99231.89;;;5.1;100.0
64025;BME280;50266;57.446;26.936;2023-04-23T00:18:37;99237.0;;;5.16;100.0
64025;BME280;50266;57.446;26.936;2023-04-23T00:19:37;99236.23;;;5.12;100.0
64025;BME280;50266;57.446;26.936;2023-04-23T00:20:37;99235.59;;;5.2;100.0
64025;BME280;50266;57.446;26.936;2023-04-23T00:21:37;99234.36;;;5.25;100.0
64025;BME280;50266;57.446;26.936;2023-04-23T00:22:37;99236.31;;;5.41;100.0
64025;BME280;50266;57.446;26.936;2023-04-23T00:23:38;99234.81;;;5.26;100.0
64025;BME280;50266;57.446;26.936;2023-04-23T00:24:37;99234.25;;;5.27;100.0
64025;BME280;50266;57.446;26.936;2023-04-23T00:25:37;99235.92;;;5.33;100.0
64025;BME280;50266;57.446;26.936;2023-04-23T00:26:37;99231.17;;;5.35;100.0
64025;BME280;50266;57.446;26.936;2023-04-23T00:27:37;99232.24;;;5.5;100.0
64025;BME280;50266;57.446;26.936;2023-04-23T00:28:37;99229.3;;;5.4;100.0
64025;BME280;50266;57.446;26.936;2023-04-23T00:29:37;99226.3;;;5.36;100.0
64025;BME280;50266;57.446;26.936;2023-04-23T00:30:37;99222.5;;;5.53;100.0
64025;BME280;50266;57.446;26.936;2023-04-23T00:31:37;99226.04;;;5.46;100.0
64025;BME280;50266;57.446;26.936;2023-04-23T00:32:37;99227.0;;;5.45;100.0
64025;BME280;50266;57.446;26.936;2023-04-23T00:33:37;99227.27;;;5.38;100.0
64025;BME280;50266;57.446;26.936;2023-04-23T00:34:37;99225.92;;;5.33;100.0
64025;BME280;50266;57.446;26.936;2023-04-23T00:35:37;99227.81;;;5.3;100.0
64025;BME280;50266;57.446;26.936;2023-04-23T00:36:37;99226.02;;;5.37;100.0
64025;BME280;50266;57.446;26.936;2023-04-23T00:37:37;99227.82;;;5.4;100.0
64025;BME280;50266;57.446;26.936;2023-04-23T00:38:37;99224.99;;;5.45;100.0
64025;BME280;50266;57.446;26.936;2023-04-23T00:39:37;99223.95;;;5.47;100.0
64025;BME280;50266;57.446;26.936;2023-04-23T00:40:38;99228.55;;;5.44;100.0
64025;BME280;50266;57.446;26.936;2023-04-23T00:41:37;99228.52;;;5.46;100.0
64025;BME280;50266;57.446;26.936;2023-04-23T00:42:38;99229.49;;;5.48;100.0
64025;BME280;50266;57.446;26.936;2023-04-23T00:43:37;99227.15;;;5.48;100.0
64025;BME280;50266;57.446;26.936;2023-04-23T00:44:38;99233.22;;;5.52;100.0
64025;BME280;50266;57.446;26.936;2023-04-23T00:45:37;99231.8;;;5.41;100.0
64025;BME280;50266;57.446;26.936;2023-04-23T00:46:38;99234.38;;;5.32;100.0
64025;BME280;50266;57.446;26.936;2023-04-23T00:47:38;99234.52;;;5.32;100.0
64025;BME280;50266;57.446;26.936;2023-04-23T00:48:38;99235.99;;;5.33;100.0
64025;BME280;50266;57.446;26.936;2023-04-23T00:49:38;99238.0;;;5.34;100.0
64025;BME280;50266;57.446;26.936;2023-04-23T00:50:38;99237.23;;;5.36;100.0
64025;BME280;50266;57.446;26.936;2023-04-23T00:51:38;99234.12;;;5.32;100.0
64025;BME280;50266;57.446;26.936;2023-04-23T00:52:38;99236.03;;;5.45;100.0
64025;BME280;50266;57.446;26.936;2023-04-23T00:53:38;99232.98;;;5.41;100.0
64025;BME280;50266;57.446;26.936;2023-04-23T00:54:38;99233.18;;;5.36;100.0
64025;BME280;50266;57.446;26.936;2023-04-23T00:55:38;99234.12;;;5.49;100.0
64025;BME280;50266;57.446;26.936;2023-04-23T00:56:38;99235.86;;;5.47;100.0
64025;BME280;50266;57.446;26.936;2023-04-23T00:57:38;99232.84;;;5.37;100.0
64025;BME280;50266;57.446;26.936;2023-04-23T00:58:38;99239.33;;;5.32;100.0
64025;BME280;50266;57.446;26.936;2023-04-23T00:59:38;99237.12;;;5.31;100.0
64025;BME280;50266;57.446;26.936;2023-04-23T01:00:39;99238.89;;;5.19;100.0
64025;BME280;50266;57.446;26.936;2023-04-23T01:01:39;99239.13;;;5.18;100.0
64025;BME280;50266;57.446;26.936;2023-04-23T01:02:39;99238.17;;;5.2;100.0
64025;BME280;50266;57.446;26.936;2023-04-23T01:03:39;99236.91;;;5.21;100.0
64025;BME280;50266;57.446;26.936;2023-04-23T01:04:39;99237.05;;;5.26;100.0
64025;BME280;50266;57.446;26.936;2023-04-23T01:05:40;99232.67;;;5.44;100.0
64025;BME280;50266;57.446;26.936;2023-04-23T01:06:39;99233.07;;;5.44;100.0
64025;BME280;50266;57.446;26.936;2023-04-23T01:07:39;99232.58;;;5.44;100.0
64025;BME280;50266;57.446;26.936;2023-04-23T01:08:39;99234.1;;;5.36;100.0
64025;BME280;50266;57.446;26.936;2023-04-23T01:09:39;99234.38;;;5.26;100.0
64025;BME280;50266;57.446;26.936;2023-04-23T01:10:39;99238.45;;;5.14;100.0
64025;BME280;50266;57.446;26.936;2023-04-23T01:11:41;99234.5;;;5.0;100.0
64025;BME280;50266;57.446;26.936;2023-04-23T01:12:39;99238.39;;;4.78;100.0
64025;BME280;50266;57.446;26.936;2023-04-23T01:13:40;99238.48;;;4.71;100.0
64025;BME280;50266;57.446;26.936;2023-04-23T01:14:39;99236.69;;;4.62;100.0
64025;BME280;50266;57.446;26.936;2023-04-23T01:15:39;99240.81;;;4.61;100.0
64025;BME280;50266;57.446;26.936;2023-04-23T01:16:39;99238.18;;;4.58;100.0
64025;BME280;50266;57.446;26.936;2023-04-23T01:17:39;99234.23;;;4.7;100.0
64025;BME280;50266;57.446;26.936;2023-04-23T01:18:39;99237.39;;;4.81;100.0
64025;BME280;50266;57.446;26.936;2023-04-23T01:19:39;99237.22;;;4.86;100.0
64025;BME280;50266;57.446;26.936;2023-04-23T01:20:39;99236.09;;;4.98;100.0
64025;BME280;50266;57.446;26.936;2023-04-23T01:21:39;99234.91;;;4.96;100.0
64025;BME280;50266;57.446;26.936;2023-04-23T01:22:39;99232.09;;;5.09;100.0
64025;BME280;50266;57.446;26.936;2023-04-23T01:23:39;99228.73;;;5.01;100.0
64025;BME280;50266;57.446;26.936;2023-04-23T01:24:40;99228.34;;;5.0;100.0
64025;BME280;50266;57.446;26.936;2023-04-23T01:25:39;99229.9;;;4.98;100.0
64025;BME280;50266;57.446;26.936;2023-04-23T01:26:39;99228.8;;;4.93;100.0
64025;BME280;50266;57.446;26.936;2023-04-23T01:27:39;99229.11;;;4.88;100.0
64025;BME280;50266;57.446;26.936;2023-04-23T01:28:40;99229.41;;;4.97;100.0
64025;BME280;50266;57.446;26.936;2023-04-23T01:29:39;99227.55;;;4.94;100.0
64025;BME280;50266;57.446;26.936;2023-04-23T01:30:41;99227.55;;;4.93;100.0
64025;BME280;50266;57.446;26.936;2023-04-23T01:31:39;99228.81;;;5.05;100.0
64025;BME280;50266;57.446;26.936;2023-04-23T01:32:40;99229.23;;;5.0;100.0
64025;BME280;50266;57.446;26.936;2023-04-23T01:33:40;99230.61;;;5.08;100.0
64025;BME280;50266;57.446;26.936;2023-04-23T01:34:40;99232.72;;;4.99;100.0
64025;BME280;50266;57.446;26.936;2023-04-23T01:35:40;99231.59;;;5.02;100.0
64025;BME280;50266;57.446;26.936;2023-04-23T01:36:40;99231.88;;;5.13;100.0
64025;BME280;50266;57.446;26.936;2023-04-23T01:37:40;99230.06;;;4.97;100.0
64025;BME280;50266;57.446;26.936;2023-04-23T01:38:40;99232.41;;;4.95;100.0
64025;BME280;50266;57.446;26.936;2023-04-23T01:39:40;99233.8;;;4.92;100.0
64025;BME280;50266;57.446;26.936;2023-04-23T01:40:40;99235.93;;;4.88;100.0
64025;BME280;50266;57.446;26.936;2023-04-23T01:41:40;99237.95;;;4.82;100.0
64025;BME280;50266;57.446;26.936;2023-04-23T01:42:40;99235.11;;;4.85;100.0
64025;BME280;50266;57.446;26.936;2023-04-23T01:43:40;99238.15;;;4.82;100.0
64025;BME280;50266;57.446;26.936;2023-04-23T01:44:40;99230.92;;;4.89;100.0
64025;BME280;50266;57.446;26.936;2023-04-23T01:45:40;99232.88;;;4.95;100.0
64025;BME280;50266;57.446;26.936;2023-04-23T01:46:40;99234.73;;;5.01;100.0
64025;BME280;50266;57.446;26.936;2023-04-23T01:47:40;99232.3;;;5.07;100.0
64025;BME280;50266;57.446;26.936;2023-04-23T01:48:40;99232.28;;;5.11;100.0
64025;BME280;50266;57.446;26.936;2023-04-23T01:49:40;99235.33;;;5.13;100.0
64025;BME280;50266;57.446;26.936;2023-04-23T01:50:40;99233.78;;;5.06;100.0
64025;BME280;50266;57.446;26.936;2023-04-23T01:51:41;99232.09;;;5.09;100.0
64025;BME280;50266;57.446;26.936;2023-04-23T01:52:40;99233.58;;;5.16;100.0
64025;BME280;50266;57.446;26.936;2023-04-23T01:53:40;99230.94;;;5.23;100.0
64025;BME280;50266;57.446;26.936;2023-04-23T01:54:40;99228.8;;;5.1;100.0
64025;BME280;50266;57.446;26.936;2023-04-23T01:55:41;99232.34;;;5.12;100.0
64025;BME280;50266;57.446;26.936;2023-04-23T01:56:40;99231.94;;;5.08;100.0
64025;BME280;50266;57.446;26.936;2023-04-23T01:57:40;99233.84;;;5.09;100.0
64025;BME280;50266;57.446;26.936;2023-04-23T01:58:40;99232.72;;;5.1;100.0
64025;BME280;50266;57.446;26.936;2023-04-23T01:59:40;99237.05;;;5.04;100.0
64025;BME280;50266;57.446;26.936;2023-04-23T02:00:40;99236.55;;;4.64;100.0
64025;BME280;50266;57.446;26.936;2023-04-23T02:01:41;99239.67;;;4.7;100.0
64025;BME280;50266;57.446;26.936;2023-04-23T02:02:41;99240.61;;;4.59;100.0
64025;BME280;50266;57.446;26.936;2023-04-23T02:03:40;99237.25;;;4.74;100.0
64025;BME280;50266;57.446;26.936;2023-04-23T02:04:41;99238.18;;;4.84;100.0
64025;BME280;50266;57.446;26.936;2023-04-23T02:05:41;99234.77;;;4.9;100.0
64025;BME280;50266;57.446;26.936;2023-04-23T02:06:41;99233.39;;;4.88;100.0
64025;BME280;50266;57.446;26.936;2023-04-23T02:07:40;99235.41;;;4.83;100.0
64025;BME280;50266;57.446;26.936;2023-04-23T02:08:41;99236.09;;;4.89;100.0
64025;BME280;50266;57.446;26.936;2023-04-23T02:09:40;99237.95;;;4.82;100.0
64025;BME280;50266;57.446;26.936;2023-04-23T02:10:40;99235.88;;;4.73;100.0
64025;BME280;50266;57.446;26.936;2023-04-23T02:11:40;99235.19;;;4.73;100.0
64025;BME280;50266;57.446;26.936;2023-04-23T02:12:41;99238.98;;;4.78;100.0
64025;BME280;50266;57.446;26.936;2023-04-23T02:13:41;99237.91;;;4.76;100.0
64025;BME280;50266;57.446;26.936;2023-04-23T02:14:41;99236.8;;;4.74;100.0
64025;BME280;50266;57.446;26.936;2023-04-23T02:15:41;99236.87;;;4.7;100.0
64025;BME280;50266;57.446;26.936;2023-04-23T02:16:41;99235.53;;;4.65;100.0
64025;BME280;50266;57.446;26.936;2023-04-23T02:17:41;99239.45;;;4.65;100.0
64025;BME280;50266;57.446;26.936;2023-04-23T02:18:41;99239.55;;;4.67;100.0
64025;BME280;50266;57.446;26.936;2023-04-23T02:19:41;99237.74;;;4.63;100.0
64025;BME280;50266;57.446;26.936;2023-04-23T02:20:41;99240.7;;;4.66;100.0
64025;BME280;50266;57.446;26.936;2023-04-23T02:21:41;99236.16;;;4.68;100.0
64025;BME280;50266;57.446;26.936;2023-04-23T02:22:41;99240.12;;;4.72;100.0
64025;BME280;50266;57.446;26.936;2023-04-23T02:23:41;99241.09;;;4.76;100.0
64025;BME280;50266;57.446;26.936;2023-04-23T02:24:41;99236.85;;;4.75;100.0
64025;BME280;50266;57.446;26.936;2023-04-23T02:25:41;99238.6;;;4.74;100.0
64025;BME280;50266;57.446;26.936;2023-04-23T02:26:41;99235.8;;;4.61;100.0
64025;BME280;50266;57.446;26.936;2023-04-23T02:27:41;99240.56;;;4.69;100.0
64025;BME280;50266;57.446;26.936;2023-04-23T02:28:41;99239.88;;;4.63;100.0
64025;BME280;50266;57.446;26.936;2023-04-23T02:29:41;99239.83;;;4.6;100.0
64025;BME280;50266;57.446;26.936;2023-04-23T02:30:41;99239.05;;;4.56;100.0
64025;BME280;50266;57.446;26.936;2023-04-23T02:31:41;99240.97;;;4.43;100.0
64025;BME280;50266;57.446;26.936;2023-04-23T02:32:41;99240.12;;;4.4;100.0
64025;BME280;50266;57.446;26.936;2023-04-23T02:33:41;99240.34;;;4.5;100.0
64025;BME280;50266;57.446;26.936;2023-04-23T02:34:42;99244.31;;;4.67;100.0
64025;BME280;50266;57.446;26.936;2023-04-23T02:35:41;99240.97;;;4.61;100.0
64025;BME280;50266;57.446;26.936;2023-04-23T02:36:41;99242.27;;;4.69;100.0
64025;BME280;50266;57.446;26.936;2023-04-23T02:37:41;99241.95;;;4.3;100.0
64025;BME280;50266;57.446;26.936;2023-04-23T02:38:41;99240.61;;;4.02;100.0
64025;BME280;50266;57.446;26.936;2023-04-23T02:39:41;99243.03;;;4.29;100.0
64025;BME280;50266;57.446;26.936;2023-04-23T02:40:42;99238.44;;;4.0;100.0
64025;BME280;50266;57.446;26.936;2023-04-23T02:41:41;99239.66;;;3.99;100.0
64025;BME280;50266;57.446;26.936;2023-04-23T02:42:41;99244.39;;;4.12;100.0
64025;BME280;50266;57.446;26.936;2023-04-23T02:43:41;99245.55;;;4.43;100.0
64025;BME280;50266;57.446;26.936;2023-04-23T02:44:41;99242.92;;;4.55;100.0
64025;BME280;50266;57.446;26.936;2023-04-23T02:45:41;99245.34;;;4.51;100.0
64025;BME280;50266;57.446;26.936;2023-04-23T02:46:42;99244.9;;;4.55;100.0
64025;BME280;50266;57.446;26.936;2023-04-23T02:47:42;99242.78;;;4.4;100.0
64025;BME280;50266;57.446;26.936;2023-04-23T02:48:42;99245.31;;;4.46;100.0
64025;BME280;50266;57.446;26.936;2023-04-23T02:49:42;99244.38;;;4.54;100.0
64025;BME280;50266;57.446;26.936;2023-04-23T02:50:42;99244.61;;;4.69;100.0
64025;BME280;50266;57.446;26.936;2023-04-23T02:51:42;99247.77;;;4.68;100.0
64025;BME280;50266;57.446;26.936;2023-04-23T02:52:42;99242.52;;;4.39;100.0
64025;BME280;50266;57.446;26.936;2023-04-23T02:53:42;99249.94;;;4.49;100.0
64025;BME280;50266;57.446;26.936;2023-04-23T02:54:42;99248.81;;;4.53;100.0
64025;BME280;50266;57.446;26.936;2023-04-23T02:55:42;99245.5;;;4.53;100.0
64025;BME280;50266;57.446;26.936;2023-04-23T02:56:42;99244.02;;;4.54;100.0
64025;BME280;50266;57.446;26.936;2023-04-23T02:57:42;99244.11;;;4.54;100.0
64025;BME280;50266;57.446;26.936;2023-04-23T02:58:42;99244.86;;;4.4;100.0
64025;BME280;50266;57.446;26.936;2023-04-23T02:59:42;99239.94;;;4.27;100.0
64025;BME280;50266;57.446;26.936;2023-04-23T03:00:42;99242.19;;;4.21;100.0
64025;BME280;50266;57.446;26.936;2023-04-23T03:01:42;99245.14;;;4.07;100.0
64025;BME280;50266;57.446;26.936;2023-04-23T03:02:42;99241.53;;;4.12;100.0
64025;BME280;50266;57.446;26.936;2023-04-23T03:03:42;99245.34;;;4.25;100.0
64025;BME280;50266;57.446;26.936;2023-04-23T03:04:42;99239.71;;;4.26;100.0
64025;BME280;50266;57.446;26.936;2023-04-23T03:05:42;99242.57;;;4.29;100.0
64025;BME280;50266;57.446;26.936;2023-04-23T03:06:42;99243.74;;;4.38;100.0
64025;BME280;50266;57.446;26.936;2023-04-23T03:07:42;99245.98;;;4.34;100.0
64025;BME280;50266;57.446;26.936;2023-04-23T03:08:42;99245.12;;;4.38;100.0
64025;BME280;50266;57.446;26.936;2023-04-23T03:09:42;99243.94;;;4.41;100.0
64025;BME280;50266;57.446;26.936;2023-04-23T03:10:42;99244.59;;;4.4;100.0
64025;BME280;50266;57.446;26.936;2023-04-23T03:11:42;99241.64;;;4.34;100.0
64025;BME280;50266;57.446;26.936;2023-04-23T03:12:42;99243.5;;;4.47;100.0
64025;BME280;50266;57.446;26.936;2023-04-23T03:13:42;99242.48;;;4.48;100.0
64025;BME280;50266;57.446;26.936;2023-04-23T03:14:42;99239.62;;;4.43;100.0
64025;BME280;50266;57.446;26.936;2023-04-23T03:15:42;99243.7;;;4.45;100.0
64025;BME280;50266;57.446;26.936;2023-04-23T03:16:42;99241.27;;;4.4;100.0
64025;BME280;50266;57.446;26.936;2023-04-23T03:17:42;99239.94;;;4.34;100.0
64025;BME280;50266;57.446;26.936;2023-04-23T03:18:42;99245.32;;;4.38;100.0
64025;BME280;50266;57.446;26.936;2023-04-23T03:19:43;99244.3;;;4.38;100.0
64025;BME280;50266;57.446;26.936;2023-04-23T03:20:42;99246.95;;;4.44;100.0
64025;BME280;50266;57.446;26.936;2023-04-23T03:21:42;99244.2;;;4.45;100.0
64025;BME280;50266;57.446;26.936;2023-04-23T03:22:42;99243.19;;;4.35;100.0
64025;BME280;50266;57.446;26.936;2023-04-23T03:23:42;99243.54;;;4.42;100.0
64025;BME280;50266;57.446;26.936;2023-04-23T03:24:43;99245.77;;;4.43;100.0
64025;BME280;50266;57.446;26.936;2023-04-23T03:25:42;99249.95;;;4.46;100.0
64025;BME280;50266;57.446;26.936;2023-04-23T03:26:43;99247.65;;;4.44;100.0
64025;BME280;50266;57.446;26.936;2023-04-23T03:27:43;99245.47;;;4.47;100.0
64025;BME280;50266;57.446;26.936;2023-04-23T03:28:43;99249.44;;;4.55;100.0
64025;BME280;50266;57.446;26.936;2023-04-23T03:29:43;99245.97;;;4.62;100.0
64025;BME280;50266;57.446;26.936;2023-04-23T03:30:43;99249.58;;;4.51;100.0
64025;BME280;50266;57.446;26.936;2023-04-23T03:31:43;99247.05;;;4.46;100.0
64025;BME280;50266;57.446;26.936;2023-04-23T03:32:43;99248.7;;;4.47;100.0
64025;BME280;50266;57.446;26.936;2023-04-23T03:33:43;99241.78;;;4.21;100.0
64025;BME280;50266;57.446;26.936;2023-04-23T03:34:43;99245.05;;;3.98;100.0
64025;BME280;50266;57.446;26.936;2023-04-23T03:35:43;99245.73;;;3.89;100.0
64025;BME280;50266;57.446;26.936;2023-04-23T03:36:43;99212.73;;;3.8;100.0
64025;BME280;50266;57.446;26.936;2023-04-23T03:37:43;99209.68;;;3.92;100.0
64025;BME280;50266;57.446;26.936;2023-04-23T03:38:43;99207.14;;;4.12;100.0
64025;BME280;50266;57.446;26.936;2023-04-23T03:39:43;99212.84;;;4.48;100.0
64025;BME280;50266;57.446;26.936;2023-04-23T03:40:44;99208.34;;;4.71;100.0
64025;BME280;50266;57.446;26.936;2023-04-23T03:41:43;99209.66;;;4.77;100.0
64025;BME280;50266;57.446;26.936;2023-04-23T03:42:43;99209.52;;;4.99;100.0
64025;BME280;50266;57.446;26.936;2023-04-23T03:43:43;99211.38;;;4.94;100.0
64025;BME280;50266;57.446;26.936;2023-04-23T03:44:43;99210.38;;;4.7;100.0
64025;BME280;50266;57.446;26.936;2023-04-23T03:45:43;99212.23;;;4.66;100.0
64025;BME280;50266;57.446;26.936;2023-04-23T03:46:43;99213.13;;;4.62;100.0
64025;BME280;50266;57.446;26.936;2023-04-23T03:47:43;99214.41;;;4.55;100.0
64025;BME280;50266;57.446;26.936;2023-04-23T03:48:43;99213.15;;;4.88;100.0
64025;BME280;50266;57.446;26.936;2023-04-23T03:49:43;99212.22;;;4.98;100.0
64025;BME280;50266;57.446;26.936;2023-04-23T03:50:43;99215.08;;;5.08;100.0
64025;BME280;50266;57.446;26.936;2023-04-23T03:51:43;99215.26;;;5.18;100.0
64025;BME280;50266;57.446;26.936;2023-04-23T03:52:43;99215.11;;;5.14;100.0
64025;BME280;50266;57.446;26.936;2023-04-23T03:53:43;99215.25;;;4.98;100.0
64025;BME280;50266;57.446;26.936;2023-04-23T03:54:43;99216.69;;;5.15;100.0
64025;BME280;50266;57.446;26.936;2023-04-23T03:55:43;99214.98;;;5.37;100.0
64025;BME280;50266;57.446;26.936;2023-04-23T03:56:43;99220.45;;;5.28;100.0
64025;BME280;50266;57.446;26.936;2023-04-23T03:57:43;99218.43;;;5.09;100.0
64025;BME280;50266;57.446;26.936;2023-04-23T03:58:43;99219.85;;;5.28;100.0
64025;BME280;50266;57.446;26.936;2023-04-23T03:59:43;99222.23;;;5.49;100.0
64025;BME280;50266;57.446;26.936;2023-04-23T04:00:43;99224.9;;;5.55;100.0
64025;BME280;50266;57.446;26.936;2023-04-23T04:01:43;99225.36;;;5.55;100.0
64025;BME280;50266;57.446;26.936;2023-04-23T04:02:43;99222.81;;;5.62;100.0
64025;BME280;50266;57.446;26.936;2023-04-23T04:03:43;99225.15;;;5.81;100.0
64025;BME280;50266;57.446;26.936;2023-04-23T04:04:43;99226.92;;;5.68;100.0
64025;BME280;50266;57.446;26.936;2023-04-23T04:05:43;99226.74;;;5.8;100.0
64025;BME280;50266;57.446;26.936;2023-04-23T04:06:43;99226.3;;;5.73;100.0
64025;BME280;50266;57.446;26.936;2023-04-23T04:07:43;99224.92;;;5.94;100.0
64025;BME280;50266;57.446;26.936;2023-04-23T04:08:43;99225.09;;;5.93;100.0
64025;BME280;50266;57.446;26.936;2023-04-23T04:09:43;99226.5;;;5.95;100.0
64025;BME280;50266;57.446;26.936;2023-04-23T04:10:43;99227.05;;;6.03;100.0
64025;BME280;50266;57.446;26.936;2023-04-23T04:11:43;99229.81;;;5.69;100.0
64025;BME280;50266;57.446;26.936;2023-04-23T04:12:43;99229.32;;;5.69;100.0
64025;BME280;50266;57.446;26.936;2023-04-23T04:13:43;99229.74;;;5.75;100.0
64025;BME280;50266;57.446;26.936;2023-04-23T04:14:43;99233.59;;;5.76;100.0
64025;BME280;50266;57.446;26.936;2023-04-23T04:15:43;99228.5;;;5.87;100.0
64025;BME280;50266;57.446;26.936;2023-04-23T04:16:43;99228.59;;;6.01;100.0
64025;BME280;50266;57.446;26.936;2023-04-23T04:17:43;99229.77;;;6.14;100.0
64025;BME280;50266;57.446;26.936;2023-04-23T04:18:43;99229.62;;;6.0;100.0
64025;BME280;50266;57.446;26.936;2023-04-23T04:19:43;99230.29;;;5.99;100.0
64025;BME280;50266;57.446;26.936;2023-04-23T04:20:43;99232.83;;;6.07;100.0
64025;BME280;50266;57.446;26.936;2023-04-23T04:21:43;99233.59;;;6.07;100.0
64025;BME280;50266;57.446;26.936;2023-04-23T04:22:43;99235.36;;;6.04;100.0
64025;BME280;50266;57.446;26.936;2023-04-23T04:23:44;99234.93;;;6.09;100.0
64025;BME280;50266;57.446;26.936;2023-04-23T04:24:43;99233.84;;;6.31;100.0
64025;BME280;50266;57.446;26.936;2023-04-23T04:25:43;99231.35;;;6.29;100.0
64025;BME280;50266;57.446;26.936;2023-04-23T04:26:44;99235.69;;;6.34;100.0
64025;BME280;50266;57.446;26.936;2023-04-23T04:27:43;99231.98;;;6.46;100.0
64025;BME280;50266;57.446;26.936;2023-04-23T04:28:43;99230.22;;;6.54;100.0
64025;BME280;50266;57.446;26.936;2023-04-23T04:29:44;99232.16;;;6.49;100.0
64025;BME280;50266;57.446;26.936;2023-04-23T04:30:44;99233.61;;;6.51;100.0
64025;BME280;50266;57.446;26.936;2023-04-23T04:31:44;99228.84;;;6.56;100.0
64025;BME280;50266;57.446;26.936;2023-04-23T04:32:44;99233.59;;;6.69;100.0
64025;BME280;50266;57.446;26.936;2023-04-23T04:33:44;99234.42;;;6.82;100.0
64025;BME280;50266;57.446;26.936;2023-04-23T04:34:44;99235.16;;;6.83;100.0
64025;BME280;50266;57.446;26.936;2023-04-23T04:35:44;99229.92;;;6.88;100.0
64025;BME280;50266;57.446;26.936;2023-04-23T04:36:44;99230.47;;;6.98;100.0
64025;BME280;50266;57.446;26.936;2023-04-23T04:37:44;99232.45;;;7.0;100.0
64025;BME280;50266;57.446;26.936;2023-04-23T04:38:44;99227.19;;;7.04;100.0
64025;BME280;50266;57.446;26.936;2023-04-23T04:39:44;99225.94;;;7.19;100.0
64025;BME280;50266;57.446;26.936;2023-04-23T04:40:44;99230.44;;;7.26;100.0
64025;BME280;50266;57.446;26.936;2023-04-23T04:41:44;99229.88;;;7.22;100.0
64025;BME280;50266;57.446;26.936;2023-04-23T04:42:44;99231.14;;;7.31;100.0
64025;BME280;50266;57.446;26.936;2023-04-23T04:43:44;99230.96;;;7.42;100.0
64025;BME280;50266;57.446;26.936;2023-04-23T04:44:44;99233.73;;;7.5;100.0
64025;BME280;50266;57.446;26.936;2023-04-23T04:45:44;99232.44;;;7.3;100.0
64025;BME280;50266;57.446;26.936;2023-04-23T04:46:44;99234.1;;;7.42;100.0
64025;BME280;50266;57.446;26.936;2023-04-23T04:47:44;99232.75;;;7.63;100.0
64025;BME280;50266;57.446;26.936;2023-04-23T04:48:44;99230.27;;;7.72;100.0
64025;BME280;50266;57.446;26.936;2023-04-23T04:49:44;99231.03;;;7.79;100.0
64025;BME280;50266;57.446;26.936;2023-04-23T04:50:44;99231.5;;;7.95;100.0
64025;BME280;50266;57.446;26.936;2023-04-23T04:51:44;99230.51;;;8.04;100.0
64025;BME280;50266;57.446;26.936;2023-04-23T04:52:44;99231.29;;;8.04;100.0
64025;BME280;50266;57.446;26.936;2023-04-23T04:53:44;99230.21;;;8.14;100.0
64025;BME280;50266;57.446;26.936;2023-04-23T04:54:44;99231.23;;;8.16;100.0
64025;BME280;50266;57.446;26.936;2023-04-23T04:55:44;99228.8;;;8.44;100.0
64025;BME280;50266;57.446;26.936;2023-04-23T04:56:44;99227.98;;;8.52;100.0
64025;BME280;50266;57.446;26.936;2023-04-23T04:57:44;99229.42;;;8.53;100.0
64025;BME280;50266;57.446;26.936;2023-04-23T04:58:44;99229.72;;;8.5;100.0
64025;BME280;50266;57.446;26.936;2023-04-23T04:59:44;99226.75;;;8.74;100.0
64025;BME280;50266;57.446;26.936;2023-04-23T05:00:44;99239.52;;;8.8;100.0
64025;BME280;50266;57.446;26.936;2023-04-23T05:01:44;99237.95;;;8.86;100.0
64025;BME280;50266;57.446;26.936;2023-04-23T05:02:44;99238.66;;;8.9;100.0
64025;BME280;50266;57.446;26.936;2023-04-23T05:03:44;99235.54;;;8.89;100.0
64025;BME280;50266;57.446;26.936;2023-04-23T05:04:44;99234.05;;;8.97;100.0
64025;BME280;50266;57.446;26.936;2023-04-23T05:05:44;99230.53;;;9.17;100.0
64025;BME280;50266;57.446;26.936;2023-04-23T05:06:44;99229.55;;;9.35;100.0
64025;BME280;50266;57.446;26.936;2023-04-23T05:07:44;99231.23;;;9.36;100.0
64025;BME280;50266;57.446;26.936;2023-04-23T05:08:44;99228.49;;;9.43;100.0
64025;BME280;50266;57.446;26.936;2023-04-23T05:09:44;99225.84;;;9.51;100.0
64025;BME280;50266;57.446;26.936;2023-04-23T05:10:44;99222.94;;;9.53;100.0
64025;BME280;50266;57.446;26.936;2023-04-23T05:11:44;99223.81;;;9.57;100.0
64025;BME280;50266;57.446;26.936;2023-04-23T05:12:44;99221.72;;;9.51;100.0
64025;BME280;50266;57.446;26.936;2023-04-23T05:13:44;99228.17;;;9.65;100.0
64025;BME280;50266;57.446;26.936;2023-04-23T05:14:44;99227.91;;;9.63;100.0
64025;BME280;50266;57.446;26.936;2023-04-23T05:15:44;99222.92;;;9.63;100.0
64025;BME280;50266;57.446;26.936;2023-04-23T05:16:44;99224.69;;;9.71;100.0
64025;BME280;50266;57.446;26.936;2023-04-23T05:17:44;99228.59;;;9.86;100.0
64025;BME280;50266;57.446;26.936;2023-04-23T05:18:44;99225.75;;;9.85;100.0